sensor_id;sensor_type;location;lat;lon;timestamp;P1;durP1;ratioP1;P2;durP2;ratioP2
14116;SDS011;7137;51.436;6.544;2023-09-07T00:00:33;9.17;;;5.47;;
14116;SDS011;7137;51.436;6.544;2023-09-07T00:03:34;8.80;;;6.13;;
14116;SDS011;7137;51.436;6.544;2023-09-07T00:06:41;10.50;;;6.10;;
14116;SDS011;7137;51.436;6.544;2023-09-07T00:09:43;12.23;;;5.80;;
14116;SDS011;7137;51.436;6.544;2023-09-07T00:12:47;9.37;;;5.73;;
14116;SDS011;7137;51.436;6.544;2023-09-07T00:15:48;9.37;;;6.17;;
14116;SDS011;7137;51.436;6.544;2023-09-07T00:18:50;12.57;;;5.97;;
14116;SDS011;7137;51.436;6.544;2023-09-07T00:21:53;8.73;;;6.20;;
14116;SDS011;7137;51.436;6.544;2023-09-07T00:24:54;9.00;;;5.80;;
14116;SDS011;7137;51.436;6.544;2023-09-07T00:27:56;7.87;;;5.57;;
14116;SDS011;7137;51.436;6.544;2023-09-07T00:30:57;8.43;;;6.20;;
14116;SDS011;7137;51.436;6.544;2023-09-07T00:33:59;8.33;;;5.87;;
14116;SDS011;7137;51.436;6.544;2023-09-07T00:37:02;9.47;;;6.43;;
14116;SDS011;7137;51.436;6.544;2023-09-07T00:40:04;8.80;;;6.30;;
14116;SDS011;7137;51.436;6.544;2023-09-07T00:43:09;9.00;;;5.70;;
14116;SDS011;7137;51.436;6.544;2023-09-07T00:46:10;8.77;;;6.00;;
14116;SDS011;7137;51.436;6.544;2023-09-07T00:49:13;9.60;;;5.80;;
14116;SDS011;7137;51.436;6.544;2023-09-07T00:52:16;8.50;;;5.73;;
14116;SDS011;7137;51.436;6.544;2023-09-07T00:55:19;8.17;;;5.67;;
14116;SDS011;7137;51.436;6.544;2023-09-07T00:58:21;9.33;;;5.50;;
14116;SDS011;7137;51.436;6.544;2023-09-07T01:01:23;9.70;;;5.97;;
14116;SDS011;7137;51.436;6.544;2023-09-07T01:04:25;10.47;;;5.90;;
14116;SDS011;7137;51.436;6.544;2023-09-07T01:07:29;9.53;;;5.80;;
14116;SDS011;7137;51.436;6.544;2023-09-07T01:10:36;7.90;;;5.90;;
14116;SDS011;7137;51.436;6.544;2023-09-07T01:13:38;9.63;;;5.90;;
14116;SDS011;7137;51.436;6.544;2023-09-07T01:16:40;9.30;;;6.10;;
14116;SDS011;7137;51.436;6.544;2023-09-07T01:19:42;9.17;;;6.43;;
14116;SDS011;7137;51.436;6.544;2023-09-07T01:22:45;9.90;;;6.47;;
14116;SDS011;7137;51.436;6.544;2023-09-07T01:25:49;11.17;;;7.50;;
14116;SDS011;7137;51.436;6.544;2023-09-07T01:28:52;11.03;;;7.07;;
14116;SDS011;7137;51.436;6.544;2023-09-07T01:31:53;9.60;;;6.73;;
14116;SDS011;7137;51.436;6.544;2023-09-07T01:38:47;9.47;;;6.43;;
14116;SDS011;7137;51.436;6.544;2023-09-07T01:41:48;10.37;;;6.63;;
14116;SDS011;7137;51.436;6.544;2023-09-07T01:44:50;11.23;;;6.80;;
14116;SDS011;7137;51.436;6.544;2023-09-07T01:47:52;10.97;;;6.83;;
14116;SDS011;7137;51.436;6.544;2023-09-07T01:50:53;9.17;;;6.97;;
14116;SDS011;7137;51.436;6.544;2023-09-07T01:53:56;11.03;;;6.53;;
14116;SDS011;7137;51.436;6.544;2023-09-07T01:56:58;10.43;;;7.07;;
14116;SDS011;7137;51.436;6.544;2023-09-07T01:59:59;9.93;;;6.77;;
14116;SDS011;7137;51.436;6.544;2023-09-07T02:03:01;9.10;;;6.03;;
14116;SDS011;7137;51.436;6.544;2023-09-07T02:06:02;9.07;;;6.27;;
14116;SDS011;7137;51.436;6.544;2023-09-07T02:09:05;8.93;;;5.93;;
14116;SDS011;7137;51.436;6.544;2023-09-07T02:12:07;8.47;;;5.50;;
14116;SDS011;7137;51.436;6.544;2023-09-07T02:15:10;8.47;;;6.03;;
14116;SDS011;7137;51.436;6.544;2023-09-07T02:18:12;8.27;;;5.80;;
14116;SDS011;7137;51.436;6.544;2023-09-07T02:21:13;6.87;;;5.37;;
14116;SDS011;7137;51.436;6.544;2023-09-07T02:24:16;7.50;;;5.60;;
14116;SDS011;7137;51.436;6.544;2023-09-07T02:27:18;7.23;;;5.30;;
14116;SDS011;7137;51.436;6.544;2023-09-07T02:30:19;7.60;;;5.60;;
14116;SDS011;7137;51.436;6.544;2023-09-07T02:33:21;7.77;;;5.40;;
14116;SDS011;7137;51.436;6.544;2023-09-07T02:36:22;7.03;;;5.40;;
14116;SDS011;7137;51.436;6.544;2023-09-07T02:39:25;7.50;;;5.80;;
14116;SDS011;7137;51.436;6.544;2023-09-07T02:42:26;7.90;;;5.10;;
14116;SDS011;7137;51.436;6.544;2023-09-07T02:45:28;9.63;;;5.60;;
14116;SDS011;7137;51.436;6.544;2023-09-07T02:48:29;7.30;;;5.30;;
14116;SDS011;7137;51.436;6.544;2023-09-07T02:51:32;9.33;;;5.13;;
14116;SDS011;7137;51.436;6.544;2023-09-07T02:54:35;7.00;;;4.93;;
14116;SDS011;7137;51.436;6.544;2023-09-07T02:57:36;7.90;;;5.70;;
14116;SDS011;7137;51.436;6.544;2023-09-07T03:00:41;9.27;;;5.90;;
14116;SDS011;7137;51.436;6.544;2023-09-07T03:03:44;9.10;;;5.77;;
14116;SDS011;7137;51.436;6.544;2023-09-07T03:06:45;7.37;;;5.67;;
14116;SDS011;7137;51.436;6.544;2023-09-07T03:09:48;7.47;;;5.60;;
14116;SDS011;7137;51.436;6.544;2023-09-07T03:12:52;7.47;;;5.30;;
14116;SDS011;7137;51.436;6.544;2023-09-07T03:15:54;7.80;;;5.53;;
14116;SDS011;7137;51.436;6.544;2023-09-07T03:18:56;8.13;;;5.93;;
14116;SDS011;7137;51.436;6.544;2023-09-07T03:21:57;8.27;;;6.17;;
14116;SDS011;7137;51.436;6.544;2023-09-07T03:25:00;7.07;;;5.60;;
14116;SDS011;7137;51.436;6.544;2023-09-07T03:28:02;8.30;;;5.60;;
14116;SDS011;7137;51.436;6.544;2023-09-07T03:31:04;9.00;;;5.67;;
14116;SDS011;7137;51.436;6.544;2023-09-07T03:34:06;8.10;;;5.97;;
14116;SDS011;7137;51.436;6.544;2023-09-07T03:37:07;8.27;;;6.67;;
14116;SDS011;7137;51.436;6.544;2023-09-07T03:40:13;8.57;;;6.77;;
14116;SDS011;7137;51.436;6.544;2023-09-07T03:43:14;7.60;;;6.07;;
14116;SDS011;7137;51.436;6.544;2023-09-07T03:46:16;8.47;;;6.80;;
14116;SDS011;7137;51.436;6.544;2023-09-07T03:49:17;8.33;;;6.60;;
14116;SDS011;7137;51.436;6.544;2023-09-07T03:52:19;8.20;;;6.50;;
14116;SDS011;7137;51.436;6.544;2023-09-07T03:55:23;6.97;;;6.00;;
14116;SDS011;7137;51.436;6.544;2023-09-07T03:58:24;8.03;;;6.00;;
14116;SDS011;7137;51.436;6.544;2023-09-07T04:01:26;7.93;;;5.80;;
14116;SDS011;7137;51.436;6.544;2023-09-07T04:04:29;7.77;;;6.10;;
14116;SDS011;7137;51.436;6.544;2023-09-07T04:07:30;8.77;;;6.80;;
14116;SDS011;7137;51.436;6.544;2023-09-07T04:10:35;11.03;;;7.03;;
14116;SDS011;7137;51.436;6.544;2023-09-07T04:13:38;9.27;;;5.87;;
14116;SDS011;7137;51.436;6.544;2023-09-07T04:16:39;8.40;;;6.13;;
14116;SDS011;7137;51.436;6.544;2023-09-07T04:19:41;8.53;;;6.43;;
14116;SDS011;7137;51.436;6.544;2023-09-07T04:22:43;9.70;;;6.30;;
14116;SDS011;7137;51.436;6.544;2023-09-07T04:25:46;7.17;;;6.13;;
14116;SDS011;7137;51.436;6.544;2023-09-07T04:28:48;9.07;;;6.43;;
14116;SDS011;7137;51.436;6.544;2023-09-07T04:31:49;11.37;;;6.77;;
14116;SDS011;7137;51.436;6.544;2023-09-07T04:34:52;14.63;;;7.13;;
14116;SDS011;7137;51.436;6.544;2023-09-07T04:37:56;8.80;;;6.80;;
14116;SDS011;7137;51.436;6.544;2023-09-07T04:41:06;14.10;;;6.60;;
14116;SDS011;7137;51.436;6.544;2023-09-07T04:44:08;13.30;;;6.43;;
14116;SDS011;7137;51.436;6.544;2023-09-07T04:47:09;11.70;;;6.57;;
14116;SDS011;7137;51.436;6.544;2023-09-07T04:50:12;12.43;;;6.73;;
14116;SDS011;7137;51.436;6.544;2023-09-07T04:53:14;14.17;;;6.87;;
14116;SDS011;7137;51.436;6.544;2023-09-07T04:56:17;12.47;;;7.10;;
14116;SDS011;7137;51.436;6.544;2023-09-07T04:59:19;10.07;;;6.80;;
14116;SDS011;7137;51.436;6.544;2023-09-07T05:02:20;13.57;;;6.83;;
14116;SDS011;7137;51.436;6.544;2023-09-07T05:05:23;13.63;;;7.03;;
14116;SDS011;7137;51.436;6.544;2023-09-07T05:08:24;11.87;;;7.40;;
14116;SDS011;7137;51.436;6.544;2023-09-07T05:11:27;11.63;;;6.17;;
14116;SDS011;7137;51.436;6.544;2023-09-07T05:14:29;11.27;;;6.27;;
14116;SDS011;7137;51.436;6.544;2023-09-07T05:17:31;10.73;;;6.93;;
14116;SDS011;7137;51.436;6.544;2023-09-07T05:20:32;10.90;;;6.30;;
14116;SDS011;7137;51.436;6.544;2023-09-07T05:23:34;8.40;;;6.77;;
14116;SDS011;7137;51.436;6.544;2023-09-07T05:26:36;9.60;;;6.87;;
14116;SDS011;7137;51.436;6.544;2023-09-07T05:29:38;9.80;;;6.50;;
14116;SDS011;7137;51.436;6.544;2023-09-07T05:32:39;11.60;;;7.20;;
14116;SDS011;7137;51.436;6.544;2023-09-07T05:35:42;13.27;;;7.33;;
14116;SDS011;7137;51.436;6.544;2023-09-07T05:38:45;10.13;;;7.10;;
14116;SDS011;7137;51.436;6.544;2023-09-07T05:41:50;13.10;;;6.90;;
14116;SDS011;7137;51.436;6.544;2023-09-07T05:44:51;11.87;;;7.40;;
14116;SDS011;7137;51.436;6.544;2023-09-07T05:47:53;12.93;;;7.53;;
14116;SDS011;7137;51.436;6.544;2023-09-07T05:50:54;9.93;;;7.07;;
14116;SDS011;7137;51.436;6.544;2023-09-07T05:53:56;11.13;;;6.80;;
14116;SDS011;7137;51.436;6.544;2023-09-07T05:56:59;10.30;;;6.90;;
14116;SDS011;7137;51.436;6.544;2023-09-07T06:00:01;10.50;;;6.97;;
14116;SDS011;7137;51.436;6.544;2023-09-07T06:03:04;10.90;;;6.50;;
14116;SDS011;7137;51.436;6.544;2023-09-07T06:06:06;10.07;;;6.63;;
14116;SDS011;7137;51.436;6.544;2023-09-07T06:09:07;8.47;;;6.60;;
14116;SDS011;7137;51.436;6.544;2023-09-07T06:12:10;8.07;;;6.33;;
14116;SDS011;7137;51.436;6.544;2023-09-07T06:15:13;8.43;;;6.27;;
14116;SDS011;7137;51.436;6.544;2023-09-07T06:18:15;10.63;;;6.33;;
14116;SDS011;7137;51.436;6.544;2023-09-07T06:21:17;10.27;;;6.90;;
14116;SDS011;7137;51.436;6.544;2023-09-07T06:24:18;9.00;;;6.53;;
14116;SDS011;7137;51.436;6.544;2023-09-07T06:27:21;9.90;;;6.73;;
14116;SDS011;7137;51.436;6.544;2023-09-07T06:30:23;8.73;;;5.80;;
14116;SDS011;7137;51.436;6.544;2023-09-07T06:33:24;9.23;;;5.57;;
14116;SDS011;7137;51.436;6.544;2023-09-07T06:36:26;8.80;;;5.67;;
14116;SDS011;7137;51.436;6.544;2023-09-07T06:39:27;8.97;;;5.90;;
14116;SDS011;7137;51.436;6.544;2023-09-07T06:42:30;8.87;;;5.83;;
14116;SDS011;7137;51.436;6.544;2023-09-07T06:45:33;10.77;;;5.77;;
14116;SDS011;7137;51.436;6.544;2023-09-07T06:48:35;8.13;;;5.27;;
14116;SDS011;7137;51.436;6.544;2023-09-07T06:51:37;8.13;;;4.77;;
14116;SDS011;7137;51.436;6.544;2023-09-07T06:54:39;8.13;;;5.00;;
14116;SDS011;7137;51.436;6.544;2023-09-07T06:57:42;9.37;;;5.80;;
14116;SDS011;7137;51.436;6.544;2023-09-07T07:00:43;8.27;;;4.90;;
14116;SDS011;7137;51.436;6.544;2023-09-07T07:03:48;11.20;;;6.03;;
14116;SDS011;7137;51.436;6.544;2023-09-07T07:06:50;10.10;;;5.20;;
14116;SDS011;7137;51.436;6.544;2023-09-07T07:09:51;9.20;;;4.47;;
14116;SDS011;7137;51.436;6.544;2023-09-07T07:12:54;7.83;;;5.00;;
14116;SDS011;7137;51.436;6.544;2023-09-07T07:15:56;9.60;;;4.90;;
14116;SDS011;7137;51.436;6.544;2023-09-07T07:18:57;12.20;;;5.00;;
14116;SDS011;7137;51.436;6.544;2023-09-07T07:21:59;9.87;;;4.73;;
14116;SDS011;7137;51.436;6.544;2023-09-07T07:25:00;7.80;;;4.40;;
14116;SDS011;7137;51.436;6.544;2023-09-07T07:28:06;8.03;;;4.40;;
14116;SDS011;7137;51.436;6.544;2023-09-07T07:31:08;9.40;;;4.33;;
14116;SDS011;7137;51.436;6.544;2023-09-07T07:34:10;6.30;;;4.13;;
14116;SDS011;7137;51.436;6.544;2023-09-07T07:37:12;8.27;;;4.50;;
14116;SDS011;7137;51.436;6.544;2023-09-07T07:40:14;7.43;;;4.10;;
14116;SDS011;7137;51.436;6.544;2023-09-07T07:43:17;8.53;;;4.43;;
14116;SDS011;7137;51.436;6.544;2023-09-07T07:46:18;9.70;;;4.87;;
14116;SDS011;7137;51.436;6.544;2023-09-07T07:49:20;8.67;;;4.47;;
14116;SDS011;7137;51.436;6.544;2023-09-07T07:52:21;7.70;;;4.17;;
14116;SDS011;7137;51.436;6.544;2023-09-07T07:55:23;7.20;;;3.87;;
14116;SDS011;7137;51.436;6.544;2023-09-07T07:58:26;10.10;;;4.33;;
14116;SDS011;7137;51.436;6.544;2023-09-07T08:01:28;7.43;;;4.20;;
14116;SDS011;7137;51.436;6.544;2023-09-07T08:04:29;7.67;;;4.10;;
14116;SDS011;7137;51.436;6.544;2023-09-07T08:07:32;8.13;;;4.63;;
14116;SDS011;7137;51.436;6.544;2023-09-07T08:10:34;6.50;;;3.63;;
14116;SDS011;7137;51.436;6.544;2023-09-07T08:13:38;7.70;;;4.40;;
14116;SDS011;7137;51.436;6.544;2023-09-07T08:16:39;7.03;;;3.60;;
14116;SDS011;7137;51.436;6.544;2023-09-07T08:19:41;8.40;;;4.33;;
14116;SDS011;7137;51.436;6.544;2023-09-07T08:22:44;7.03;;;4.17;;
14116;SDS011;7137;51.436;6.544;2023-09-07T08:25:45;6.30;;;4.13;;
14116;SDS011;7137;51.436;6.544;2023-09-07T08:28:48;7.43;;;4.30;;
14116;SDS011;7137;51.436;6.544;2023-09-07T08:31:50;7.53;;;4.30;;
14116;SDS011;7137;51.436;6.544;2023-09-07T08:34:51;7.13;;;4.20;;
14116;SDS011;7137;51.436;6.544;2023-09-07T08:37:56;6.00;;;3.70;;
14116;SDS011;7137;51.436;6.544;2023-09-07T08:41:00;7.27;;;3.77;;
14116;SDS011;7137;51.436;6.544;2023-09-07T08:44:06;5.30;;;3.60;;
14116;SDS011;7137;51.436;6.544;2023-09-07T08:47:09;7.47;;;3.80;;
14116;SDS011;7137;51.436;6.544;2023-09-07T08:50:12;6.57;;;3.60;;
14116;SDS011;7137;51.436;6.544;2023-09-07T08:53:15;8.23;;;3.63;;
14116;SDS011;7137;51.436;6.544;2023-09-07T08:56:18;6.10;;;3.37;;
14116;SDS011;7137;51.436;6.544;2023-09-07T08:59:23;6.80;;;4.10;;
14116;SDS011;7137;51.436;6.544;2023-09-07T09:02:25;6.33;;;4.13;;
14116;SDS011;7137;51.436;6.544;2023-09-07T09:05:27;7.60;;;3.90;;
14116;SDS011;7137;51.436;6.544;2023-09-07T09:08:41;6.60;;;3.80;;
14116;SDS011;7137;51.436;6.544;2023-09-07T09:11:43;7.23;;;3.47;;
14116;SDS011;7137;51.436;6.544;2023-09-07T09:14:45;5.63;;;3.60;;
14116;SDS011;7137;51.436;6.544;2023-09-07T09:17:47;4.83;;;3.40;;
14116;SDS011;7137;51.436;6.544;2023-09-07T09:20:49;6.30;;;3.90;;
14116;SDS011;7137;51.436;6.544;2023-09-07T09:23:51;7.17;;;4.07;;
14116;SDS011;7137;51.436;6.544;2023-09-07T09:26:54;6.37;;;3.33;;
14116;SDS011;7137;51.436;6.544;2023-09-07T09:29:57;7.00;;;4.10;;
14116;SDS011;7137;51.436;6.544;2023-09-07T09:32:59;7.67;;;3.80;;
14116;SDS011;7137;51.436;6.544;2023-09-07T09:36:01;5.90;;;3.80;;
14116;SDS011;7137;51.436;6.544;2023-09-07T09:39:04;10.07;;;4.17;;
14116;SDS011;7137;51.436;6.544;2023-09-07T09:42:06;7.63;;;4.03;;
14116;SDS011;7137;51.436;6.544;2023-09-07T09:45:14;7.77;;;3.77;;
14116;SDS011;7137;51.436;6.544;2023-09-07T09:48:16;6.20;;;3.43;;
14116;SDS011;7137;51.436;6.544;2023-09-07T09:51:19;7.07;;;4.50;;
14116;SDS011;7137;51.436;6.544;2023-09-07T09:54:23;5.73;;;3.30;;
14116;SDS011;7137;51.436;6.544;2023-09-07T09:57:26;4.90;;;3.30;;
14116;SDS011;7137;51.436;6.544;2023-09-07T10:00:30;5.03;;;3.30;;
14116;SDS011;7137;51.436;6.544;2023-09-07T10:03:38;5.70;;;3.30;;
14116;SDS011;7137;51.436;6.544;2023-09-07T10:06:53;5.67;;;3.30;;
14116;SDS011;7137;51.436;6.544;2023-09-07T10:09:56;6.00;;;3.10;;
14116;SDS011;7137;51.436;6.544;2023-09-07T10:12:57;5.70;;;3.57;;
14116;SDS011;7137;51.436;6.544;2023-09-07T10:16:01;7.40;;;3.60;;
14116;SDS011;7137;51.436;6.544;2023-09-07T10:19:13;5.80;;;3.40;;
14116;SDS011;7137;51.436;6.544;2023-09-07T10:22:20;6.30;;;3.37;;
14116;SDS011;7137;51.436;6.544;2023-09-07T10:25:22;5.03;;;3.00;;
14116;SDS011;7137;51.436;6.544;2023-09-07T10:28:24;5.30;;;3.40;;
14116;SDS011;7137;51.436;6.544;2023-09-07T10:31:28;5.00;;;3.37;;
14116;SDS011;7137;51.436;6.544;2023-09-07T10:34:34;5.60;;;3.50;;
14116;SDS011;7137;51.436;6.544;2023-09-07T10:37:37;4.83;;;3.50;;
14116;SDS011;7137;51.436;6.544;2023-09-07T10:40:40;5.17;;;3.53;;
14116;SDS011;7137;51.436;6.544;2023-09-07T10:43:48;6.60;;;3.57;;
14116;SDS011;7137;51.436;6.544;2023-09-07T10:46:52;5.33;;;3.40;;
14116;SDS011;7137;51.436;6.544;2023-09-07T10:49:54;6.30;;;3.30;;
14116;SDS011;7137;51.436;6.544;2023-09-07T10:52:59;4.77;;;3.03;;
14116;SDS011;7137;51.436;6.544;2023-09-07T10:56:02;4.53;;;3.10;;
14116;SDS011;7137;51.436;6.544;2023-09-07T10:59:05;4.33;;;3.20;;
14116;SDS011;7137;51.436;6.544;2023-09-07T11:02:07;7.10;;;3.30;;
14116;SDS011;7137;51.436;6.544;2023-09-07T11:05:09;5.77;;;3.17;;
14116;SDS011;7137;51.436;6.544;2023-09-07T11:08:11;5.60;;;3.03;;
14116;SDS011;7137;51.436;6.544;2023-09-07T11:11:13;4.60;;;3.03;;
14116;SDS011;7137;51.436;6.544;2023-09-07T11:14:15;5.00;;;3.20;;
14116;SDS011;7137;51.436;6.544;2023-09-07T11:17:18;5.20;;;3.70;;
14116;SDS011;7137;51.436;6.544;2023-09-07T11:20:21;5.43;;;3.17;;
14116;SDS011;7137;51.436;6.544;2023-09-07T11:23:22;4.83;;;3.30;;
14116;SDS011;7137;51.436;6.544;2023-09-07T11:26:24;4.97;;;2.93;;
14116;SDS011;7137;51.436;6.544;2023-09-07T11:29:26;5.30;;;3.17;;
14116;SDS011;7137;51.436;6.544;2023-09-07T11:32:34;4.50;;;3.17;;
14116;SDS011;7137;51.436;6.544;2023-09-07T11:35:35;4.83;;;3.40;;
14116;SDS011;7137;51.436;6.544;2023-09-07T11:38:37;6.10;;;3.30;;
14116;SDS011;7137;51.436;6.544;2023-09-07T11:41:39;5.27;;;3.40;;
14116;SDS011;7137;51.436;6.544;2023-09-07T11:44:41;4.97;;;3.10;;
14116;SDS011;7137;51.436;6.544;2023-09-07T11:47:44;4.97;;;3.00;;
14116;SDS011;7137;51.436;6.544;2023-09-07T11:50:45;4.20;;;2.80;;
14116;SDS011;7137;51.436;6.544;2023-09-07T11:53:47;5.47;;;3.20;;
14116;SDS011;7137;51.436;6.544;2023-09-07T11:56:49;4.27;;;3.23;;
14116;SDS011;7137;51.436;6.544;2023-09-07T11:59:50;4.20;;;3.07;;
14116;SDS011;7137;51.436;6.544;2023-09-07T12:02:53;5.33;;;3.20;;
14116;SDS011;7137;51.436;6.544;2023-09-07T12:05:55;6.47;;;3.57;;
14116;SDS011;7137;51.436;6.544;2023-09-07T12:09:00;5.17;;;3.30;;
14116;SDS011;7137;51.436;6.544;2023-09-07T12:12:03;6.00;;;3.20;;
14116;SDS011;7137;51.436;6.544;2023-09-07T12:15:06;5.67;;;3.37;;
14116;SDS011;7137;51.436;6.544;2023-09-07T12:18:10;6.03;;;3.67;;
14116;SDS011;7137;51.436;6.544;2023-09-07T12:21:11;6.63;;;3.80;;
14116;SDS011;7137;51.436;6.544;2023-09-07T12:24:13;6.27;;;3.43;;
14116;SDS011;7137;51.436;6.544;2023-09-07T12:27:15;6.53;;;3.50;;
14116;SDS011;7137;51.436;6.544;2023-09-07T12:30:17;5.33;;;3.20;;
14116;SDS011;7137;51.436;6.544;2023-09-07T12:33:22;5.63;;;3.00;;
14116;SDS011;7137;51.436;6.544;2023-09-07T12:36:23;6.47;;;3.67;;
14116;SDS011;7137;51.436;6.544;2023-09-07T12:39:28;7.83;;;3.67;;
14116;SDS011;7137;51.436;6.544;2023-09-07T12:42:30;4.20;;;3.00;;
14116;SDS011;7137;51.436;6.544;2023-09-07T12:45:31;7.03;;;3.43;;
14116;SDS011;7137;51.436;6.544;2023-09-07T12:48:34;4.60;;;3.03;;
14116;SDS011;7137;51.436;6.544;2023-09-07T12:51:36;5.83;;;3.60;;
14116;SDS011;7137;51.436;6.544;2023-09-07T12:54:38;6.43;;;3.60;;
14116;SDS011;7137;51.436;6.544;2023-09-07T12:57:39;5.30;;;3.17;;
14116;SDS011;7137;51.436;6.544;2023-09-07T13:00:43;5.40;;;3.60;;
14116;SDS011;7137;51.436;6.544;2023-09-07T13:03:45;5.67;;;3.40;;
14116;SDS011;7137;51.436;6.544;2023-09-07T13:06:47;5.83;;;3.20;;
14116;SDS011;7137;51.436;6.544;2023-09-07T13:09:49;6.70;;;3.20;;
14116;SDS011;7137;51.436;6.544;2023-09-07T13:12:50;5.43;;;3.20;;
14116;SDS011;7137;51.436;6.544;2023-09-07T13:15:52;3.97;;;2.70;;
14116;SDS011;7137;51.436;6.544;2023-09-07T13:18:55;5.07;;;3.00;;
14116;SDS011;7137;51.436;6.544;2023-09-07T13:21:56;5.23;;;3.40;;
14116;SDS011;7137;51.436;6.544;2023-09-07T13:24:58;5.60;;;3.40;;
14116;SDS011;7137;51.436;6.544;2023-09-07T13:28:01;7.30;;;3.90;;
14116;SDS011;7137;51.436;6.544;2023-09-07T13:31:02;5.43;;;3.47;;
14116;SDS011;7137;51.436;6.544;2023-09-07T13:34:05;6.73;;;3.40;;
14116;SDS011;7137;51.436;6.544;2023-09-07T13:37:07;4.83;;;3.20;;
14116;SDS011;7137;51.436;6.544;2023-09-07T13:40:09;5.53;;;3.10;;
14116;SDS011;7137;51.436;6.544;2023-09-07T13:43:11;4.17;;;2.90;;
14116;SDS011;7137;51.436;6.544;2023-09-07T13:46:12;5.23;;;3.10;;
14116;SDS011;7137;51.436;6.544;2023-09-07T13:49:15;4.53;;;3.13;;
14116;SDS011;7137;51.436;6.544;2023-09-07T13:52:17;4.27;;;3.17;;
14116;SDS011;7137;51.436;6.544;2023-09-07T13:55:18;5.07;;;3.53;;
14116;SDS011;7137;51.436;6.544;2023-09-07T13:58:20;6.13;;;3.20;;
14116;SDS011;7137;51.436;6.544;2023-09-07T14:01:21;5.03;;;3.20;;
14116;SDS011;7137;51.436;6.544;2023-09-07T14:04:25;5.60;;;3.17;;
14116;SDS011;7137;51.436;6.544;2023-09-07T14:07:27;6.27;;;3.40;;
14116;SDS011;7137;51.436;6.544;2023-09-07T14:10:29;4.10;;;2.90;;
14116;SDS011;7137;51.436;6.544;2023-09-07T14:13:31;6.97;;;3.10;;
14116;SDS011;7137;51.436;6.544;2023-09-07T14:16:35;4.17;;;3.10;;
14116;SDS011;7137;51.436;6.544;2023-09-07T14:19:38;5.33;;;2.90;;
14116;SDS011;7137;51.436;6.544;2023-09-07T14:22:39;5.23;;;3.50;;
14116;SDS011;7137;51.436;6.544;2023-09-07T14:25:41;4.03;;;3.07;;
14116;SDS011;7137;51.436;6.544;2023-09-07T14:28:45;4.73;;;2.93;;
14116;SDS011;7137;51.436;6.544;2023-09-07T14:31:46;4.10;;;3.10;;
14116;SDS011;7137;51.436;6.544;2023-09-07T14:34:49;4.93;;;3.33;;
14116;SDS011;7137;51.436;6.544;2023-09-07T14:37:51;5.27;;;3.27;;
14116;SDS011;7137;51.436;6.544;2023-09-07T14:40:52;5.17;;;3.27;;
14116;SDS011;7137;51.436;6.544;2023-09-07T14:43:55;4.90;;;3.37;;
14116;SDS011;7137;51.436;6.544;2023-09-07T14:46:57;5.63;;;3.20;;
14116;SDS011;7137;51.436;6.544;2023-09-07T14:50:00;6.43;;;3.47;;
14116;SDS011;7137;51.436;6.544;2023-09-07T14:53:02;4.50;;;3.40;;
14116;SDS011;7137;51.436;6.544;2023-09-07T14:56:04;5.40;;;3.30;;
14116;SDS011;7137;51.436;6.544;2023-09-07T14:59:05;5.60;;;3.60;;
14116;SDS011;7137;51.436;6.544;2023-09-07T15:02:07;5.07;;;3.03;;
14116;SDS011;7137;51.436;6.544;2023-09-07T15:05:10;4.97;;;3.13;;
14116;SDS011;7137;51.436;6.544;2023-09-07T15:08:11;4.60;;;3.30;;
14116;SDS011;7137;51.436;6.544;2023-09-07T15:11:13;5.50;;;3.40;;
14116;SDS011;7137;51.436;6.544;2023-09-07T15:14:14;5.33;;;3.70;;
14116;SDS011;7137;51.436;6.544;2023-09-07T15:17:16;6.17;;;3.47;;
14116;SDS011;7137;51.436;6.544;2023-09-07T15:20:19;5.80;;;3.93;;
14116;SDS011;7137;51.436;6.544;2023-09-07T15:23:21;4.93;;;3.50;;
14116;SDS011;7137;51.436;6.544;2023-09-07T15:26:22;5.27;;;3.20;;
14116;SDS011;7137;51.436;6.544;2023-09-07T15:29:24;5.07;;;3.30;;
14116;SDS011;7137;51.436;6.544;2023-09-07T15:32:26;5.50;;;3.43;;
14116;SDS011;7137;51.436;6.544;2023-09-07T15:35:30;5.83;;;3.80;;
14116;SDS011;7137;51.436;6.544;2023-09-07T15:38:32;5.50;;;3.60;;
14116;SDS011;7137;51.436;6.544;2023-09-07T15:41:33;6.00;;;3.30;;
14116;SDS011;7137;51.436;6.544;2023-09-07T15:44:36;5.90;;;3.83;;
14116;SDS011;7137;51.436;6.544;2023-09-07T15:47:37;6.50;;;3.63;;
14116;SDS011;7137;51.436;6.544;2023-09-07T15:50:41;6.17;;;3.60;;
14116;SDS011;7137;51.436;6.544;2023-09-07T15:53:42;4.47;;;3.50;;
14116;SDS011;7137;51.436;6.544;2023-09-07T15:56:44;5.10;;;3.57;;
14116;SDS011;7137;51.436;6.544;2023-09-07T15:59:46;5.60;;;3.60;;
14116;SDS011;7137;51.436;6.544;2023-09-07T16:02:47;5.33;;;3.67;;
14116;SDS011;7137;51.436;6.544;2023-09-07T16:05:50;5.03;;;3.60;;
14116;SDS011;7137;51.436;6.544;2023-09-07T16:08:52;6.10;;;4.13;;
14116;SDS011;7137;51.436;6.544;2023-09-07T16:11:53;5.43;;;3.63;;
14116;SDS011;7137;51.436;6.544;2023-09-07T16:14:55;7.27;;;4.50;;
14116;SDS011;7137;51.436;6.544;2023-09-07T16:17:56;5.93;;;3.73;;
14116;SDS011;7137;51.436;6.544;2023-09-07T16:21:00;5.43;;;3.67;;
14116;SDS011;7137;51.436;6.544;2023-09-07T16:24:06;6.13;;;4.20;;
14116;SDS011;7137;51.436;6.544;2023-09-07T16:27:10;5.03;;;3.80;;
14116;SDS011;7137;51.436;6.544;2023-09-07T16:30:12;5.20;;;3.50;;
14116;SDS011;7137;51.436;6.544;2023-09-07T16:33:14;5.33;;;3.80;;
14116;SDS011;7137;51.436;6.544;2023-09-07T16:36:17;5.57;;;3.63;;
14116;SDS011;7137;51.436;6.544;2023-09-07T16:39:18;5.10;;;3.60;;
14116;SDS011;7137;51.436;6.544;2023-09-07T16:42:20;6.10;;;3.93;;
14116;SDS011;7137;51.436;6.544;2023-09-07T16:45:23;5.50;;;3.43;;
14116;SDS011;7137;51.436;6.544;2023-09-07T16:48:24;4.83;;;3.60;;
14116;SDS011;7137;51.436;6.544;2023-09-07T16:51:28;4.57;;;3.60;;
14116;SDS011;7137;51.436;6.544;2023-09-07T16:54:30;4.80;;;3.73;;
14116;SDS011;7137;51.436;6.544;2023-09-07T16:57:32;6.77;;;3.80;;
14116;SDS011;7137;51.436;6.544;2023-09-07T17:00:34;5.67;;;3.80;;
14116;SDS011;7137;51.436;6.544;2023-09-07T17:03:36;7.23;;;4.30;;
14116;SDS011;7137;51.436;6.544;2023-09-07T17:06:39;6.30;;;5.37;;
14116;SDS011;7137;51.436;6.544;2023-09-07T17:09:40;9.53;;;5.17;;
14116;SDS011;7137;51.436;6.544;2023-09-07T17:12:42;6.83;;;4.10;;
14116;SDS011;7137;51.436;6.544;2023-09-07T17:15:47;5.20;;;3.97;;
14116;SDS011;7137;51.436;6.544;2023-09-07T17:18:49;6.37;;;4.20;;
14116;SDS011;7137;51.436;6.544;2023-09-07T17:21:51;6.63;;;3.50;;
14116;SDS011;7137;51.436;6.544;2023-09-07T17:24:55;5.10;;;3.50;;
14116;SDS011;7137;51.436;6.544;2023-09-07T17:27:56;5.37;;;3.77;;
14116;SDS011;7137;51.436;6.544;2023-09-07T17:30:58;5.90;;;3.67;;
14116;SDS011;7137;51.436;6.544;2023-09-07T17:34:00;6.03;;;3.97;;
14116;SDS011;7137;51.436;6.544;2023-09-07T17:37:03;5.60;;;3.63;;
14116;SDS011;7137;51.436;6.544;2023-09-07T17:40:06;5.20;;;3.67;;
14116;SDS011;7137;51.436;6.544;2023-09-07T17:43:09;4.60;;;3.70;;
14116;SDS011;7137;51.436;6.544;2023-09-07T17:46:11;4.90;;;3.53;;
14116;SDS011;7137;51.436;6.544;2023-09-07T17:49:13;4.80;;;3.70;;
14116;SDS011;7137;51.436;6.544;2023-09-07T17:52:16;5.10;;;3.30;;
14116;SDS011;7137;51.436;6.544;2023-09-07T17:55:18;5.07;;;3.43;;
14116;SDS011;7137;51.436;6.544;2023-09-07T17:58:20;5.63;;;3.20;;
14116;SDS011;7137;51.436;6.544;2023-09-07T18:01:21;5.47;;;3.67;;
14116;SDS011;7137;51.436;6.544;2023-09-07T18:04:23;6.17;;;3.40;;
14116;SDS011;7137;51.436;6.544;2023-09-07T18:07:26;5.53;;;3.60;;
14116;SDS011;7137;51.436;6.544;2023-09-07T18:10:27;5.33;;;3.70;;
14116;SDS011;7137;51.436;6.544;2023-09-07T18:13:30;6.90;;;3.80;;
14116;SDS011;7137;51.436;6.544;2023-09-07T18:16:32;5.47;;;4.00;;
14116;SDS011;7137;51.436;6.544;2023-09-07T18:19:33;6.80;;;4.30;;
14116;SDS011;7137;51.436;6.544;2023-09-07T18:22:36;5.97;;;3.80;;
14116;SDS011;7137;51.436;6.544;2023-09-07T18:25:38;6.37;;;4.33;;
14116;SDS011;7137;51.436;6.544;2023-09-07T18:28:41;5.57;;;3.90;;
14116;SDS011;7137;51.436;6.544;2023-09-07T18:31:43;5.77;;;4.17;;
14116;SDS011;7137;51.436;6.544;2023-09-07T18:34:45;6.47;;;4.40;;
14116;SDS011;7137;51.436;6.544;2023-09-07T18:37:48;5.67;;;4.00;;